createdAt,value
2022-11-10T00:02:13.550Z,101085.56
2022-11-10T00:05:17.773Z,101085.69
2022-11-10T00:08:20.447Z,101081.88
2022-11-10T00:11:23.406Z,101090.34
2022-11-10T00:14:43.589Z,101092.09
2022-11-10T00:17:47.041Z,101101.47
2022-11-10T00:20:51.133Z,101095.16
2022-11-10T00:23:54.081Z,101110.56
2022-11-10T00:26:57.239Z,101107.31
2022-11-10T00:30:00.223Z,101114.53
2022-11-10T00:33:03.219Z,101121.13
2022-11-10T00:36:07.933Z,101111.91
2022-11-10T00:39:11.660Z,101117.31
2022-11-10T00:42:14.325Z,101114.31
2022-11-10T00:45:18.396Z,101121.97
2022-11-10T00:48:21.169Z,101119.19
2022-11-10T00:51:27.075Z,101118.97
2022-11-10T00:54:29.794Z,101117.00
2022-11-10T00:57:32.601Z,101121.25
2022-11-10T01:00:35.308Z,101126.38
2022-11-10T01:03:38.260Z,101127.78
2022-11-10T01:06:42.606Z,101129.50
2022-11-10T01:09:45.474Z,101129.50
2022-11-10T01:12:48.322Z,101135.84
2022-11-10T01:15:51.483Z,101131.63
2022-11-10T01:18:57.471Z,101145.88
2022-11-10T01:22:01.941Z,101150.59
2022-11-10T01:25:05.834Z,101150.28
2022-11-10T01:28:08.710Z,101140.56
2022-11-10T01:31:14.309Z,101162.88
2022-11-10T01:34:17.078Z,101162.25
2022-11-10T01:37:21.861Z,101173.00
2022-11-10T01:40:24.721Z,101169.47
2022-11-10T01:43:28.561Z,101171.09
2022-11-10T01:46:31.637Z,101171.66
2022-11-10T01:49:36.152Z,101180.47
2022-11-10T01:52:41.600Z,101190.38
2022-11-10T01:55:46.325Z,101191.44
2022-11-10T01:58:54.984Z,101187.91
2022-11-10T02:02:10.641Z,101192.56
2022-11-10T02:05:13.632Z,101200.22
2022-11-10T02:08:19.760Z,101199.16
2022-11-10T02:11:22.899Z,101205.97
2022-11-10T02:14:26.001Z,101204.81
2022-11-10T02:17:28.905Z,101215.09
2022-11-10T02:20:34.564Z,101208.97
2022-11-10T02:23:50.149Z,101221.50
2022-11-10T02:26:55.766Z,101220.09
2022-11-10T02:29:59.591Z,101216.97
2022-11-10T02:33:03.801Z,101224.84
2022-11-10T02:36:07.157Z,101222.78
2022-11-10T02:39:11.424Z,101229.06
2022-11-10T02:42:14.260Z,101237.19
2022-11-10T02:45:17.723Z,101240.00
2022-11-10T02:48:20.839Z,101232.69
2022-11-10T02:51:23.581Z,101231.63
2022-11-10T02:54:27.737Z,101233.66
2022-11-10T02:57:30.430Z,101248.25
2022-11-10T03:00:33.407Z,101240.91
2022-11-10T03:03:36.593Z,101240.06
2022-11-10T03:06:39.472Z,101250.31
2022-11-10T03:09:43.545Z,101251.91
2022-11-10T03:12:46.328Z,101265.59
2022-11-10T03:15:49.575Z,101267.75
2022-11-10T03:18:52.263Z,101272.50
2022-11-10T03:21:55.461Z,101283.19
2022-11-10T03:24:59.552Z,101289.94
2022-11-10T03:28:02.381Z,101294.13
2022-11-10T03:31:05.150Z,101292.69
2022-11-10T03:34:08.084Z,101298.78
2022-11-10T03:37:10.812Z,101298.72
2022-11-10T03:40:15.328Z,101305.38
2022-11-10T03:43:17.982Z,101321.16
2022-11-10T03:46:20.874Z,101310.31
2022-11-10T03:49:23.717Z,101318.81
2022-11-10T03:52:26.370Z,101323.16
2022-11-10T03:55:30.526Z,101328.81
2022-11-10T03:58:33.846Z,101324.41
2022-11-10T04:01:37.542Z,101328.00
2022-11-10T04:04:57.716Z,101320.03
2022-11-10T04:08:19.026Z,101334.41
2022-11-10T04:11:37.526Z,101338.69
2022-11-10T04:14:57.527Z,101344.66
2022-11-10T04:18:20.873Z,101353.78
2022-11-10T04:21:23.568Z,101348.16
2022-11-10T04:24:26.324Z,101364.41
2022-11-10T04:27:30.553Z,101370.50
2022-11-10T04:30:33.390Z,101368.97
2022-11-10T04:33:36.558Z,101386.03
2022-11-10T04:36:42.044Z,101386.09
2022-11-10T04:39:44.695Z,101389.19
2022-11-10T04:42:48.868Z,101390.06
2022-11-10T04:45:51.953Z,101389.38
2022-11-10T04:48:56.535Z,101383.47
2022-11-10T04:51:59.334Z,101397.94
2022-11-10T04:55:02.086Z,101400.34
2022-11-10T04:58:06.318Z,101391.16
2022-11-10T05:01:11.871Z,101398.97
2022-11-10T05:04:14.725Z,101410.28
2022-11-10T05:07:17.390Z,101411.81
2022-11-10T05:10:20.420Z,101408.75
2022-11-10T05:13:24.800Z,101415.06
2022-11-10T05:16:27.839Z,101418.53
2022-11-10T05:19:30.739Z,101417.47
2022-11-10T05:22:33.606Z,101426.94
2022-11-10T05:25:38.374Z,101436.69
2022-11-10T05:28:44.047Z,101446.16
2022-11-10T05:31:51.315Z,101448.75
2022-11-10T05:34:54.415Z,101455.22
2022-11-10T05:37:57.172Z,101463.91
2022-11-10T05:41:00.400Z,101468.69
2022-11-10T05:44:04.451Z,101478.44
2022-11-10T05:47:08.832Z,101483.56
2022-11-10T05:50:11.562Z,101498.09
2022-11-10T05:53:14.498Z,101497.88
2022-11-10T05:56:17.218Z,101510.72
2022-11-10T05:59:21.490Z,101514.91
2022-11-10T06:02:24.192Z,101521.47
2022-11-10T06:05:31.101Z,101522.91
2022-11-10T06:08:34.363Z,101527.31
2022-11-10T06:11:37.186Z,101527.78
2022-11-10T06:14:41.435Z,101535.72
2022-11-10T06:17:44.663Z,101540.13
2022-11-10T06:20:48.414Z,101555.63
2022-11-10T06:23:51.141Z,101559.22
2022-11-10T06:26:53.830Z,101568.50
2022-11-10T06:29:57.866Z,101574.28
2022-11-10T06:33:01.163Z,101572.50
2022-11-10T06:36:03.930Z,101583.63
2022-11-10T06:39:06.710Z,101590.19
2022-11-10T06:42:09.588Z,101599.72
2022-11-10T06:45:13.647Z,101610.69
2022-11-10T06:48:16.486Z,101624.69
2022-11-10T06:51:19.160Z,101630.06
2022-11-10T06:54:22.347Z,101629.00
2022-11-10T06:57:25.071Z,101636.69
2022-11-10T07:00:30.619Z,101646.09
2022-11-10T07:03:33.381Z,101645.53
2022-11-10T07:06:36.264Z,101660.56
2022-11-10T07:09:39.626Z,101667.53
2022-11-10T07:12:42.457Z,101670.16
2022-11-10T07:15:46.808Z,101676.47
2022-11-10T07:18:49.586Z,101686.53
2022-11-10T07:21:52.428Z,101677.59
2022-11-10T07:24:55.104Z,101689.41
2022-11-10T07:27:59.747Z,101689.28
2022-11-10T07:31:04.939Z,101707.22
2022-11-10T07:34:07.784Z,101710.78
2022-11-10T07:37:11.722Z,101714.59
2022-11-10T07:40:14.687Z,101706.38
2022-11-10T07:43:17.543Z,101718.81
2022-11-10T07:46:21.626Z,101719.41
2022-11-10T07:49:24.436Z,101727.66
2022-11-10T07:52:27.133Z,101734.06
2022-11-10T07:55:29.841Z,101741.16
2022-11-10T07:58:34.064Z,101735.34
2022-11-10T08:01:38.181Z,101735.47
2022-11-10T08:04:40.905Z,101746.81
2022-11-10T08:07:43.878Z,101752.69
2022-11-10T08:10:46.825Z,101750.28
2022-11-10T08:13:49.548Z,101756.78
2022-11-10T08:16:54.076Z,101757.75
2022-11-10T08:19:56.822Z,101761.09
2022-11-10T08:23:00.830Z,101759.66
2022-11-10T08:26:03.567Z,101756.19
2022-11-10T08:29:06.494Z,101761.22
2022-11-10T08:32:10.522Z,101769.31
2022-11-10T08:35:13.257Z,101771.59
2022-11-10T08:38:17.783Z,101782.56
2022-11-10T08:41:20.494Z,101792.00
2022-11-10T08:44:23.319Z,101800.47
2022-11-10T08:47:27.361Z,101800.59
2022-11-10T08:50:30.778Z,101806.47
2022-11-10T08:53:33.491Z,101815.66
2022-11-10T08:56:36.366Z,101826.84
2022-11-10T08:59:39.112Z,101821.66
2022-11-10T09:02:43.270Z,101833.53
2022-11-10T09:05:46.980Z,101842.84
2022-11-10T09:08:49.698Z,101847.44
2022-11-10T09:11:52.560Z,101854.84
2022-11-10T09:14:55.234Z,101848.31
2022-11-10T09:18:00.668Z,101859.47
2022-11-10T09:21:06.630Z,101855.44
2022-11-10T09:24:09.524Z,101860.94
2022-11-10T09:27:12.435Z,101868.19
2022-11-10T09:30:17.841Z,101859.41
2022-11-10T09:33:22.476Z,101864.81
2022-11-10T09:36:25.354Z,101862.84
2022-11-10T09:39:28.046Z,101866.94
2022-11-10T09:42:35.102Z,101878.16
2022-11-10T09:45:43.541Z,101886.81
2022-11-10T09:48:52.310Z,101884.56
2022-11-10T09:51:56.054Z,101874.00
2022-11-10T09:55:04.515Z,101884.19
2022-11-10T09:58:07.398Z,101880.41
2022-11-10T10:01:26.565Z,101883.16
2022-11-10T10:04:51.682Z,101880.09
2022-11-10T10:08:02.103Z,101880.59
2022-11-10T10:11:22.470Z,101885.41
2022-11-10T10:14:39.148Z,101883.31
2022-11-10T10:17:48.972Z,101886.59
2022-11-10T10:21:11.642Z,101891.72
2022-11-10T10:24:21.741Z,101888.19
2022-11-10T10:27:29.119Z,101891.19
2022-11-10T10:30:31.851Z,101885.91
2022-11-10T10:33:34.631Z,101899.47
2022-11-10T10:36:39.326Z,101897.81
2022-11-10T10:39:45.503Z,101900.59
2022-11-10T10:42:48.357Z,101894.94
2022-11-10T10:46:06.868Z,101912.47
2022-11-10T10:49:28.522Z,101915.84
2022-11-10T10:52:33.602Z,101918.50
2022-11-10T10:55:37.225Z,101907.47
2022-11-10T10:58:54.332Z,101902.97
2022-11-10T11:01:57.276Z,101914.25
2022-11-10T11:05:21.073Z,101914.13
2022-11-10T11:08:25.778Z,101909.69
2022-11-10T11:11:32.016Z,101906.38
2022-11-10T11:14:34.881Z,101911.22
2022-11-10T11:17:37.680Z,101921.00
2022-11-10T11:20:48.054Z,101904.34
2022-11-10T11:24:06.225Z,101918.34
2022-11-10T11:27:16.470Z,101924.69
2022-11-10T11:30:20.960Z,101926.06
2022-11-10T11:33:38.384Z,101926.41
2022-11-10T11:36:47.860Z,101923.94
2022-11-10T11:40:01.518Z,101926.44
2022-11-10T11:43:13.177Z,101921.59
2022-11-10T11:46:24.641Z,101911.97
2022-11-10T11:49:53.886Z,101920.53
2022-11-10T11:53:06.077Z,101919.38
2022-11-10T11:56:23.524Z,101926.91
2022-11-10T11:59:42.370Z,101927.28
2022-11-10T12:03:04.636Z,101922.78
2022-11-10T12:06:27.281Z,101915.63
2022-11-10T12:09:42.305Z,101912.84
2022-11-10T12:13:04.499Z,101921.97
2022-11-10T12:16:16.534Z,101924.19
2022-11-10T12:19:31.244Z,101919.09
2022-11-10T12:22:41.722Z,101929.00
2022-11-10T12:25:54.567Z,101936.25
2022-11-10T12:29:05.596Z,101932.38
2022-11-10T12:32:17.013Z,101948.59
2022-11-10T12:35:24.564Z,101938.78
2022-11-10T12:38:37.738Z,101949.38
2022-11-10T12:41:46.320Z,101950.28
2022-11-10T12:45:06.367Z,101942.38
2022-11-10T12:48:12.794Z,101951.31
2022-11-10T12:51:21.680Z,101947.75
2022-11-10T12:54:28.587Z,101960.44
2022-11-10T12:57:33.124Z,101959.94
2022-11-10T13:00:43.236Z,101967.03
2022-11-10T13:03:55.927Z,101977.44
2022-11-10T13:07:01.699Z,101981.03
2022-11-10T13:10:22.429Z,101984.97
2022-11-10T13:13:26.199Z,101988.28
2022-11-10T13:16:54.173Z,101986.34
2022-11-10T13:20:05.253Z,101986.34
2022-11-10T13:23:25.582Z,101988.94
2022-11-10T13:26:48.860Z,101986.03
2022-11-10T13:29:57.451Z,101996.50
2022-11-10T13:33:30.638Z,101989.25
2022-11-10T13:36:41.405Z,102000.88
2022-11-10T13:39:46.599Z,102006.78
2022-11-10T13:43:21.152Z,102001.47
2022-11-10T13:46:36.053Z,101999.84
2022-11-10T13:49:59.573Z,101994.28
2022-11-10T13:53:18.796Z,101996.72
2022-11-10T13:56:36.175Z,102005.47
2022-11-10T13:59:48.967Z,102007.66
2022-11-10T14:02:54.992Z,102012.91
2022-11-10T14:06:07.361Z,102020.00
2022-11-10T14:09:24.695Z,102033.56
2022-11-10T14:12:31.809Z,102027.09
2022-11-10T14:15:41.069Z,102043.69
2022-11-10T14:18:50.100Z,102044.19
2022-11-10T14:21:58.370Z,102051.66
2022-11-10T14:25:05.747Z,102053.16
2022-11-10T14:28:25.659Z,102049.97
2022-11-10T14:31:28.547Z,102053.25
2022-11-10T14:34:33.495Z,102046.16
2022-11-10T14:37:37.617Z,102058.44
2022-11-10T14:40:42.858Z,102070.81
2022-11-10T14:43:59.058Z,102070.06
2022-11-10T14:47:23.478Z,102083.13
2022-11-10T14:50:28.361Z,102084.63
2022-11-10T14:53:36.386Z,102086.88
2022-11-10T14:56:42.510Z,102094.28
2022-11-10T14:59:45.401Z,102102.94
2022-11-10T15:02:48.383Z,102105.63
2022-11-10T15:05:51.668Z,102105.22
2022-11-10T15:08:55.919Z,102112.66
2022-11-10T15:12:19.504Z,102115.69
2022-11-10T15:15:23.984Z,102117.16
2022-11-10T15:18:27.969Z,102117.91
2022-11-10T15:21:34.131Z,102117.78
2022-11-10T15:24:41.211Z,102118.00
2022-11-10T15:27:55.778Z,102122.38
2022-11-10T15:31:01.129Z,102131.38
2022-11-10T15:34:06.360Z,102131.25
2022-11-10T15:37:27.383Z,102138.00
2022-11-10T15:40:37.241Z,102141.09
2022-11-10T15:43:40.817Z,102140.28
2022-11-10T15:46:44.369Z,102138.69
2022-11-10T15:49:47.428Z,102136.56
2022-11-10T15:52:50.195Z,102128.31
2022-11-10T15:55:54.411Z,102123.97
2022-11-10T15:59:02.108Z,102120.88
2022-11-10T16:02:17.301Z,102129.38
2022-11-10T16:05:20.260Z,102125.41
2022-11-10T16:08:24.471Z,102121.81
2022-11-10T16:11:30.572Z,102121.72
2022-11-10T16:14:33.304Z,102128.53
2022-11-10T16:17:36.160Z,102133.84
2022-11-10T16:20:38.869Z,102131.81
2022-11-10T16:23:41.761Z,102140.19
2022-11-10T16:26:46.077Z,102152.00
2022-11-10T16:29:48.947Z,102153.53
2022-11-10T16:32:51.661Z,102167.78
2022-11-10T16:35:56.138Z,102176.75
2022-11-10T16:39:02.770Z,102182.78
2022-11-10T16:42:06.866Z,102173.34
2022-11-10T16:45:15.480Z,102188.53
2022-11-10T16:48:21.685Z,102181.97
2022-11-10T16:51:29.633Z,102176.31
2022-11-10T16:54:32.496Z,102178.59
2022-11-10T16:57:39.940Z,102178.72
2022-11-10T17:00:43.378Z,102183.63
2022-11-10T17:03:49.481Z,102188.41
2022-11-10T17:06:53.413Z,102193.50
2022-11-10T17:09:57.605Z,102204.16
2022-11-10T17:13:01.797Z,102197.94
2022-11-10T17:16:07.329Z,102199.66
2022-11-10T17:19:16.326Z,102208.50
2022-11-10T17:22:21.696Z,102212.69
2022-11-10T17:25:27.273Z,102220.00
2022-11-10T17:28:31.318Z,102231.63
2022-11-10T17:31:33.978Z,102245.53
2022-11-10T17:34:36.779Z,102253.69
2022-11-10T17:37:40.000Z,102252.25
2022-11-10T17:40:43.764Z,102243.06
2022-11-10T17:43:48.744Z,102247.03
2022-11-10T17:46:51.396Z,102242.25
2022-11-10T17:49:54.096Z,102243.34
2022-11-10T17:52:56.782Z,102246.09
2022-11-10T17:55:59.493Z,102249.91
2022-11-10T17:59:03.527Z,102244.47
2022-11-10T18:02:07.729Z,102234.75
2022-11-10T18:05:12.105Z,102235.84
2022-11-10T18:08:16.860Z,102245.69
2022-11-10T18:11:20.018Z,102228.72
2022-11-10T18:14:24.166Z,102227.03
2022-11-10T18:17:27.075Z,102224.41
2022-11-10T18:20:29.747Z,102233.28
2022-11-10T18:23:32.942Z,102240.34
2022-11-10T18:26:35.629Z,102245.69
2022-11-10T18:29:39.874Z,102249.81
2022-11-10T18:32:42.546Z,102254.22
2022-11-10T18:35:45.348Z,102245.13
2022-11-10T18:38:48.198Z,102254.00
2022-11-10T18:41:51.058Z,102262.66
2022-11-10T18:44:55.188Z,102256.31
2022-11-10T18:48:03.176Z,102258.53
2022-11-10T18:51:07.247Z,102260.56
2022-11-10T18:54:11.225Z,102268.53
2022-11-10T18:57:16.764Z,102266.97
2022-11-10T19:00:24.069Z,102266.97
2022-11-10T19:03:26.882Z,102260.63
2022-11-10T19:06:30.723Z,102263.25
2022-11-10T19:09:34.499Z,102272.94
2022-11-10T19:12:40.102Z,102274.88
2022-11-10T19:15:44.616Z,102286.97
2022-11-10T19:18:47.550Z,102272.00
2022-11-10T19:21:50.530Z,102272.88
2022-11-10T19:25:07.692Z,102283.25
2022-11-10T19:28:11.863Z,102296.47
2022-11-10T19:31:18.264Z,102300.84
2022-11-10T19:34:21.402Z,102291.03
2022-11-10T19:37:24.111Z,102268.31
2022-11-10T19:40:27.008Z,102275.00
2022-11-10T19:43:31.163Z,102278.22
2022-11-10T19:46:36.952Z,102279.91
2022-11-10T19:49:39.853Z,102281.97
2022-11-10T19:52:42.524Z,102287.22
2022-11-10T19:55:45.286Z,102277.91
2022-11-10T19:58:48.887Z,102281.34
2022-11-10T20:01:53.038Z,102284.00
2022-11-10T20:05:13.611Z,102296.69
2022-11-10T20:08:16.507Z,102293.72
2022-11-10T20:11:22.043Z,102289.47
2022-11-10T20:14:25.310Z,102307.78
2022-11-10T20:17:29.399Z,102315.47
2022-11-10T20:20:32.263Z,102312.63
2022-11-10T20:23:35.345Z,102322.66
2022-11-10T20:26:38.014Z,102324.84
2022-11-10T20:29:43.039Z,102328.31
2022-11-10T20:32:47.200Z,102337.25
2022-11-10T20:35:49.912Z,102340.03
2022-11-10T20:38:55.759Z,102344.09
2022-11-10T20:41:58.496Z,102346.59
2022-11-10T20:45:01.217Z,102348.16
2022-11-10T20:48:05.640Z,102345.72
2022-11-10T20:51:13.273Z,102350.31
2022-11-10T20:54:17.365Z,102354.25
2022-11-10T20:57:20.238Z,102360.84
2022-11-10T21:00:23.051Z,102374.09
2022-11-10T21:03:27.290Z,102381.22
2022-11-10T21:06:29.998Z,102390.25
2022-11-10T21:09:32.894Z,102385.97
2022-11-10T21:12:51.031Z,102382.34
2022-11-10T21:15:55.554Z,102383.91
2022-11-10T21:19:00.850Z,102383.81
2022-11-10T21:22:03.513Z,102375.88
2022-11-10T21:25:10.119Z,102369.69
2022-11-10T21:28:12.895Z,102372.13
2022-11-10T21:31:15.849Z,102371.75
2022-11-10T21:34:20.015Z,102360.41
2022-11-10T21:37:23.741Z,102367.00
2022-11-10T21:40:26.472Z,102360.50
2022-11-10T21:43:29.382Z,102351.16
2022-11-10T21:46:32.103Z,102363.31
2022-11-10T21:49:36.532Z,102366.81
2022-11-10T21:52:39.516Z,102363.22
2022-11-10T21:55:42.512Z,102367.09
2022-11-10T21:58:45.429Z,102366.75
2022-11-10T22:01:48.168Z,102362.16
2022-11-10T22:04:52.373Z,102376.16
2022-11-10T22:07:55.322Z,102378.09
2022-11-10T22:11:15.731Z,102379.00
2022-11-10T22:14:36.071Z,102382.44
2022-11-10T22:17:56.591Z,102388.19
2022-11-10T22:21:00.916Z,102388.19
2022-11-10T22:24:21.239Z,102391.84
2022-11-10T22:27:24.089Z,102405.81
2022-11-10T22:30:28.080Z,102399.25
2022-11-10T22:33:34.792Z,102410.69
2022-11-10T22:36:38.977Z,102407.72
2022-11-10T22:40:07.713Z,102401.16
2022-11-10T22:43:28.538Z,102411.78
2022-11-10T22:46:32.666Z,102414.50
2022-11-10T22:49:35.483Z,102409.50
2022-11-10T22:52:39.543Z,102416.47
2022-11-10T22:55:42.454Z,102409.78
2022-11-10T22:58:45.182Z,102405.56
2022-11-10T23:01:48.137Z,102402.63
2022-11-10T23:04:50.851Z,102412.97
2022-11-10T23:07:56.128Z,102416.34
2022-11-10T23:11:00.631Z,102416.56
2022-11-10T23:14:03.506Z,102414.06
2022-11-10T23:17:06.399Z,102420.66
2022-11-10T23:20:10.399Z,102427.84
2022-11-10T23:23:14.628Z,102431.47
2022-11-10T23:26:19.291Z,102429.50
2022-11-10T23:29:21.977Z,102431.06
2022-11-10T23:32:24.716Z,102430.22
2022-11-10T23:35:27.549Z,102419.44
2022-11-10T23:38:33.678Z,102416.06
2022-11-10T23:41:36.545Z,102420.97
2022-11-10T23:44:39.229Z,102425.59
2022-11-10T23:47:42.045Z,102428.56
2022-11-10T23:50:45.002Z,102425.41
2022-11-10T23:53:49.119Z,102426.88
2022-11-10T23:56:52.476Z,102429.41
2022-11-10T23:59:55.308Z,102422.91
